Time;durP1;ratioP1;P1;durP2;ratioP2;P2;SDS_P1;SDS_P2;PMS_P1;PMS_P2;Temp;Humidity;BMP_temperature;BMP_pressure;BME280_temperature;BME280_humidity;BME280_pressure;Samples;Min_cycle;Max_cycle;Signal;HPM_P1;HPM_P2
2023/06/12 00:00:45;;;;;;;;;9.00;9.00;;;;;;;;5048653;28;8752;-86
2023/06/12 00:03:13;;;;;;;;;10.25;10.25;;;;;;;;5043759;28;8855;-86
2023/06/12 00:05:43;;;;;;;;;9.25;9.25;;;;;;;;5037185;28;8863;-85
2023/06/12 00:08:11;;;;;;;;;12.00;10.00;;;;;;;;5048225;28;8863;-85
2023/06/12 00:10:39;;;;;;;;;9.50;9.50;;;;;;;;5048650;28;8851;-85
2023/06/12 00:13:07;;;;;;;;;11.75;9.75;;;;;;;;5049150;28;8855;-86
2023/06/12 00:15:35;;;;;;;;;11.75;11.75;;;;;;;;5049351;28;8974;-85
2023/06/12 00:18:04;;;;;;;;;9.00;9.00;;;;;;;;5045263;28;8873;-85
2023/06/12 00:20:31;;;;;;;;;10.25;10.00;;;;;;;;5031033;28;8862;-86
2023/06/12 00:22:59;;;;;;;;;8.25;8.25;;;;;;;;5046520;28;8981;-86
2023/06/12 00:25:27;;;;;;;;;13.00;11.25;;;;;;;;5040439;28;8834;-86
2023/06/12 00:27:55;;;;;;;;;9.00;9.00;;;;;;;;5046569;28;8859;-86
2023/06/12 00:30:22;;;;;;;;;11.75;10.25;;;;;;;;5039288;28;8854;-86
2023/06/12 00:32:50;;;;;;;;;6.75;4.75;;;;;;;;5043467;28;8978;-86
2023/06/12 00:35:20;;;;;;;;;10.50;10.50;;;;;;;;5044983;28;8843;-86
2023/06/12 00:37:49;;;;;;;;;9.00;9.00;;;;;;;;5039965;28;8862;-85
2023/06/12 00:40:20;;;;;;;;;13.25;11.50;;;;;;;;5052902;28;8847;-85
2023/06/12 00:42:51;;;;;;;;;8.75;8.00;;;;;;;;5048227;28;8870;-85
2023/06/12 00:45:21;;;;;;;;;14.00;11.50;;;;;;;;5048043;28;8950;-85
2023/06/12 00:47:51;;;;;;;;;10.00;9.50;;;;;;;;5052427;28;8852;-86
2023/06/12 00:50:20;;;;;;;;;9.50;9.50;;;;;;;;5051646;28;8961;-85
2023/06/12 00:52:51;;;;;;;;;8.25;7.25;;;;;;;;5047660;28;8859;-86
2023/06/12 00:55:18;;;;;;;;;8.75;8.75;;;;;;;;5048747;28;8882;-86
2023/06/12 00:57:47;;;;;;;;;9.00;9.00;;;;;;;;5053033;28;8916;-86
2023/06/12 01:00:17;;;;;;;;;8.25;8.00;;;;;;;;5053934;28;8887;-86
2023/06/12 01:02:47;;;;;;;;;9.50;9.00;;;;;;;;5049721;28;8847;-85
2023/06/12 01:05:16;;;;;;;;;9.50;9.25;;;;;;;;5048249;28;8861;-86
2023/06/12 01:07:52;;;;;;;;;10.50;10.50;;;;;;;;5048537;28;8871;-85
2023/06/12 01:10:25;;;;;;;;;9.25;7.25;;;;;;;;5043468;28;8861;-86
2023/06/12 01:12:53;;;;;;;;;9.25;7.50;;;;;;;;5054172;28;8863;-85
2023/06/12 01:15:20;;;;;;;;;11.00;11.00;;;;;;;;5048362;28;8870;-85
2023/06/12 01:17:51;;;;;;;;;8.75;8.75;;;;;;;;5046387;28;8942;-85
2023/06/12 01:20:19;;;;;;;;;11.25;8.00;;;;;;;;5042440;28;8888;-86
2023/06/12 01:22:54;;;;;;;;;8.00;6.50;;;;;;;;5046922;28;8966;-85
2023/06/12 01:25:46;;;;;;;;;11.00;9.50;;;;;;;;5051627;28;8928;-86
2023/06/12 01:28:29;;;;;;;;;8.25;6.75;;;;;;;;5037279;28;8885;-86
2023/06/12 01:31:13;;;;;;;;;8.50;7.25;;;;;;;;5050972;28;8887;-86
2023/06/12 01:33:47;;;;;;;;;7.00;7.00;;;;;;;;5037415;28;8858;-86
2023/06/12 01:36:19;;;;;;;;;5.50;5.50;;;;;;;;5046144;28;9009;-86
2023/06/12 01:38:49;;;;;;;;;7.25;6.75;;;;;;;;5051482;28;8847;-86
2023/06/12 01:41:16;;;;;;;;;9.00;7.25;;;;;;;;5042751;28;8859;-86
2023/06/12 01:43:44;;;;;;;;;10.50;8.50;;;;;;;;5051299;28;8847;-86
2023/06/12 01:46:11;;;;;;;;;2.75;2.75;;;;;;;;5039660;28;8865;-86
2023/06/12 01:48:39;;;;;;;;;7.25;7.25;;;;;;;;5046150;28;8855;-85
2023/06/12 01:51:07;;;;;;;;;7.00;7.00;;;;;;;;5050472;28;8863;-85
2023/06/12 01:53:35;;;;;;;;;8.75;7.25;;;;;;;;5050961;28;8839;-86
2023/06/12 01:56:02;;;;;;;;;7.75;6.00;;;;;;;;5039430;28;8865;-86
2023/06/12 01:58:30;;;;;;;;;7.00;7.00;;;;;;;;5047414;28;8901;-86
2023/06/12 02:00:57;;;;;;;;;8.00;8.00;;;;;;;;5045377;28;8836;-86
2023/06/12 02:03:24;;;;;;;;;8.50;7.25;;;;;;;;5047183;28;8943;-86
2023/06/12 02:05:52;;;;;;;;;11.00;8.50;;;;;;;;5049769;28;8881;-86
2023/06/12 02:08:21;;;;;;;;;6.50;5.50;;;;;;;;5050994;28;8916;-86
2023/06/12 02:10:50;;;;;;;;;5.50;5.50;;;;;;;;5052154;28;8858;-86
2023/06/12 02:13:18;;;;;;;;;5.50;5.50;;;;;;;;5050703;28;8973;-86
2023/06/12 02:15:46;;;;;;;;;8.25;6.25;;;;;;;;5050385;28;8873;-86
2023/06/12 02:18:14;;;;;;;;;7.25;7.25;;;;;;;;5049365;28;8851;-85
2023/06/12 02:20:42;;;;;;;;;7.75;6.00;;;;;;;;5049288;28;8885;-85
2023/06/12 02:23:09;;;;;;;;;8.50;7.25;;;;;;;;5049087;28;8875;-85
2023/06/12 02:25:38;;;;;;;;;7.00;7.00;;;;;;;;5049169;28;8898;-85
2023/06/12 02:28:05;;;;;;;;;6.75;6.50;;;;;;;;5049914;28;8858;-85
2023/06/12 02:30:32;;;;;;;;;7.50;5.50;;;;;;;;5042488;28;8792;-85
2023/06/12 02:33:00;;;;;;;;;6.50;5.75;;;;;;;;5051227;28;8851;-86
2023/06/12 02:35:27;;;;;;;;;4.25;4.25;;;;;;;;5037998;28;8881;-85
2023/06/12 02:37:55;;;;;;;;;7.75;6.25;;;;;;;;5037400;28;9645;-85
2023/06/12 02:40:22;;;;;;;;;7.00;7.00;;;;;;;;5046449;28;8854;-86
2023/06/12 02:42:51;;;;;;;;;7.50;7.50;;;;;;;;5050945;28;8883;-86
2023/06/12 02:45:19;;;;;;;;;7.25;6.25;;;;;;;;5046908;28;8850;-86
2023/06/12 02:47:46;;;;;;;;;7.50;6.00;;;;;;;;5052014;28;8986;-87
2023/06/12 02:50:13;;;;;;;;;7.25;5.50;;;;;;;;5043751;28;8858;-87
2023/06/12 02:52:41;;;;;;;;;6.00;5.75;;;;;;;;5037650;28;8861;-87
2023/06/12 02:55:09;;;;;;;;;6.00;6.00;;;;;;;;5031830;28;8858;-86
2023/06/12 02:57:36;;;;;;;;;9.50;7.75;;;;;;;;5036198;28;8851;-85
2023/06/12 03:00:07;;;;;;;;;9.00;9.00;;;;;;;;5036949;28;8859;-86
2023/06/12 03:02:36;;;;;;;;;10.50;8.75;;;;;;;;5058976;28;8884;-86
2023/06/12 03:05:04;;;;;;;;;8.00;6.00;;;;;;;;5052554;28;8857;-86
2023/06/12 03:07:36;;;;;;;;;6.25;6.25;;;;;;;;5079884;28;8848;-86
2023/06/12 03:10:04;;;;;;;;;6.00;6.00;;;;;;;;5069967;28;8893;-86
2023/06/12 03:12:32;;;;;;;;;4.50;4.25;;;;;;;;5067318;28;8854;-85
2023/06/12 03:15:00;;;;;;;;;7.00;7.00;;;;;;;;5068306;28;8866;-85
2023/06/12 03:17:28;;;;;;;;;6.25;6.25;;;;;;;;5075393;28;8888;-85
2023/06/12 03:19:57;;;;;;;;;6.25;6.25;;;;;;;;5064112;28;8847;-85
2023/06/12 03:22:25;;;;;;;;;7.00;7.00;;;;;;;;5075319;28;8883;-85
2023/06/12 03:24:53;;;;;;;;;3.75;3.75;;;;;;;;5070127;28;8896;-86
2023/06/12 03:27:23;;;;;;;;;7.00;7.00;;;;;;;;5056313;28;8938;-85
2023/06/12 03:29:50;;;;;;;;;6.75;6.25;;;;;;;;5072513;28;8986;-85
2023/06/12 03:32:18;;;;;;;;;4.25;4.25;;;;;;;;5072884;28;8849;-86
2023/06/12 03:34:47;;;;;;;;;4.75;4.75;;;;;;;;5070634;28;8977;-85
2023/06/12 03:37:14;;;;;;;;;8.25;7.00;;;;;;;;5069235;28;8874;-86
2023/06/12 03:39:42;;;;;;;;;8.25;8.00;;;;;;;;5067772;28;8981;-86
2023/06/12 03:42:10;;;;;;;;;6.00;6.00;;;;;;;;5071600;28;8866;-86
2023/06/12 03:44:37;;;;;;;;;8.75;6.25;;;;;;;;5061145;28;8889;-86
2023/06/12 03:47:05;;;;;;;;;6.00;6.00;;;;;;;;5069060;28;8893;-85
2023/06/12 03:49:32;;;;;;;;;6.00;6.00;;;;;;;;5066022;28;8864;-85
2023/06/12 03:52:01;;;;;;;;;5.00;5.00;;;;;;;;5068706;28;8973;-86
2023/06/12 03:54:28;;;;;;;;;3.50;3.50;;;;;;;;5057458;28;8984;-86
2023/06/12 03:56:55;;;;;;;;;5.75;5.75;;;;;;;;5067837;28;8974;-86
2023/06/12 03:59:23;;;;;;;;;6.00;6.00;;;;;;;;5069039;28;8874;-86
2023/06/12 04:01:52;;;;;;;;;6.25;6.25;;;;;;;;5053271;28;9569;-85
2023/06/12 04:04:20;;;;;;;;;3.50;3.50;;;;;;;;5049000;28;8938;-85
2023/06/12 04:06:47;;;;;;;;;6.25;6.25;;;;;;;;5048577;28;8900;-85
2023/06/12 04:09:16;;;;;;;;;6.00;5.25;;;;;;;;5050309;28;8887;-84
2023/06/12 04:11:46;;;;;;;;;5.25;5.25;;;;;;;;5052751;28;8846;-87
2023/06/12 04:14:13;;;;;;;;;5.00;5.00;;;;;;;;5052760;28;8869;-87
2023/06/12 04:16:41;;;;;;;;;6.25;6.00;;;;;;;;5054198;28;8849;-85
2023/06/12 04:19:09;;;;;;;;;7.00;5.50;;;;;;;;5057200;28;8990;-80
2023/06/12 04:21:36;;;;;;;;;3.00;3.00;;;;;;;;5076851;28;8990;-82
2023/06/12 04:24:05;;;;;;;;;7.00;5.75;;;;;;;;5056346;28;8877;-81
2023/06/12 04:26:34;;;;;;;;;5.00;5.00;;;;;;;;5055979;28;8853;-80
2023/06/12 04:29:02;;;;;;;;;5.00;5.00;;;;;;;;5047193;28;8845;-80
2023/06/12 04:31:30;;;;;;;;;7.25;5.25;;;;;;;;5056544;28;8793;-84
2023/06/12 04:33:58;;;;;;;;;5.75;5.75;;;;;;;;5072115;28;8957;-80
2023/06/12 04:36:27;;;;;;;;;6.25;6.25;;;;;;;;5071000;28;8850;-81
2023/06/12 04:38:56;;;;;;;;;5.50;4.75;;;;;;;;5058944;28;8873;-82
2023/06/12 04:41:27;;;;;;;;;5.50;5.50;;;;;;;;5064664;28;8873;-80
2023/06/12 04:43:58;;;;;;;;;9.00;7.50;;;;;;;;5066020;28;8847;-78
2023/06/12 04:46:28;;;;;;;;;6.75;5.50;;;;;;;;5070753;28;8855;-78
2023/06/12 04:48:55;;;;;;;;;7.25;6.75;;;;;;;;5070852;28;8839;-82
2023/06/12 04:51:23;;;;;;;;;7.00;7.00;;;;;;;;5070640;28;8973;-81
2023/06/12 04:53:53;;;;;;;;;5.75;5.75;;;;;;;;5071062;28;8831;-81
2023/06/12 04:56:21;;;;;;;;;8.00;5.50;;;;;;;;5060690;28;8879;-83
2023/06/12 04:58:49;;;;;;;;;6.75;6.75;;;;;;;;5069041;28;8862;-83
2023/06/12 05:01:19;;;;;;;;;6.75;6.75;;;;;;;;5060190;28;8809;-80
2023/06/12 05:03:47;;;;;;;;;8.00;8.00;;;;;;;;5065771;28;8993;-79
2023/06/12 05:06:14;;;;;;;;;7.00;7.00;;;;;;;;5070265;28;8858;-78
2023/06/12 05:08:42;;;;;;;;;7.75;7.75;;;;;;;;5068035;28;8875;-83
2023/06/12 05:11:09;;;;;;;;;7.75;7.25;;;;;;;;5070363;28;8894;-85
2023/06/12 05:13:36;;;;;;;;;9.25;6.50;;;;;;;;5067901;28;8874;-85
2023/06/12 05:16:03;;;;;;;;;9.50;9.25;;;;;;;;5070545;28;8839;-79
2023/06/12 05:18:32;;;;;;;;;7.25;7.00;;;;;;;;5070103;28;8855;-84
2023/06/12 05:21:00;;;;;;;;;8.75;8.75;;;;;;;;5066898;28;8942;-83
2023/06/12 05:23:27;;;;;;;;;9.00;8.50;;;;;;;;5059658;28;8842;-81
2023/06/12 05:25:55;;;;;;;;;10.00;10.00;;;;;;;;5070143;28;8881;-78
2023/06/12 05:28:23;;;;;;;;;8.25;6.75;;;;;;;;5070668;28;8846;-78
2023/06/12 05:30:50;;;;;;;;;7.75;7.75;;;;;;;;5069679;28;8787;-77
2023/06/12 05:33:17;;;;;;;;;9.50;8.00;;;;;;;;5069732;28;8977;-79
2023/06/12 05:35:47;;;;;;;;;9.75;6.00;;;;;;;;5066983;28;8842;-78
2023/06/12 05:38:14;;;;;;;;;7.75;7.75;;;;;;;;5067330;28;8879;-78
2023/06/12 05:40:41;;;;;;;;;10.75;10.75;;;;;;;;5069357;28;8958;-78
2023/06/12 05:43:09;;;;;;;;;11.25;11.00;;;;;;;;5070001;28;8871;-78
2023/06/12 05:45:36;;;;;;;;;8.00;8.00;;;;;;;;5065917;28;8847;-78
2023/06/12 05:48:03;;;;;;;;;9.25;8.75;;;;;;;;5062382;28;8921;-78
2023/06/12 05:50:30;;;;;;;;;9.00;9.00;;;;;;;;5067125;28;8865;-77
2023/06/12 05:52:59;;;;;;;;;9.00;9.00;;;;;;;;5069849;28;8892;-78
2023/06/12 05:55:27;;;;;;;;;8.25;7.75;;;;;;;;5064677;28;9647;-78
2023/06/12 05:57:54;;;;;;;;;12.75;10.75;;;;;;;;5067727;28;8871;-78
2023/06/12 06:00:24;;;;;;;;;10.00;10.00;;;;;;;;5069428;28;8849;-77
2023/06/12 06:02:52;;;;;;;;;7.75;7.75;;;;;;;;5070629;28;8943;-80
2023/06/12 06:05:22;;;;;;;;;7.50;7.50;;;;;;;;5071553;28;8985;-78
2023/06/12 06:07:50;;;;;;;;;8.50;8.50;;;;;;;;5060963;28;8877;-80
2023/06/12 06:10:19;;;;;;;;;7.75;6.00;;;;;;;;5067599;28;8869;-80
2023/06/12 06:12:46;;;;;;;;;9.25;9.25;;;;;;;;5059254;28;8881;-79
2023/06/12 06:15:16;;;;;;;;;8.00;8.00;;;;;;;;5064705;28;8888;-80
2023/06/12 06:17:43;;;;;;;;;6.50;6.50;;;;;;;;5051514;28;8875;-78
2023/06/12 06:20:13;;;;;;;;;9.00;8.50;;;;;;;;5057099;28;8839;-78
2023/06/12 06:22:41;;;;;;;;;5.75;5.75;;;;;;;;5068767;28;8838;-79
2023/06/12 06:25:09;;;;;;;;;8.25;7.00;;;;;;;;5057590;28;8843;-79
2023/06/12 06:27:38;;;;;;;;;7.00;7.00;;;;;;;;5068236;28;8843;-79
2023/06/12 06:30:06;;;;;;;;;8.25;6.25;;;;;;;;5067683;28;8837;-78
2023/06/12 06:32:33;;;;;;;;;10.00;9.00;;;;;;;;5068445;28;8827;-80
2023/06/12 06:35:04;;;;;;;;;8.25;8.25;;;;;;;;5068197;28;8859;-80
2023/06/12 06:37:31;;;;;;;;;10.00;8.50;;;;;;;;5068659;28;8869;-80
2023/06/12 06:39:59;;;;;;;;;8.00;8.00;;;;;;;;5062584;28;9020;-79
2023/06/12 06:42:29;;;;;;;;;6.50;6.50;;;;;;;;5064280;28;8986;-79
2023/06/12 06:44:57;;;;;;;;;11.00;8.00;;;;;;;;5058068;28;8939;-79
2023/06/12 06:47:25;;;;;;;;;8.67;8.67;;;;;;;;5068417;28;8879;-79
2023/06/12 06:49:52;;;;;;;;;10.75;9.50;;;;;;;;5069290;28;8875;-84
2023/06/12 06:52:22;;;;;;;;;12.50;9.50;;;;;;;;5054521;28;8863;-82
2023/06/12 06:54:49;;;;;;;;;7.00;7.00;;;;;;;;5059588;28;8863;-83
2023/06/12 06:57:17;;;;;;;;;8.75;8.75;;;;;;;;5068256;28;8985;-83
2023/06/12 06:59:44;;;;;;;;;9.00;9.00;;;;;;;;5070073;28;8827;-82
2023/06/12 07:02:13;;;;;;;;;9.50;8.25;;;;;;;;5056199;28;8912;-82
2023/06/12 07:04:40;;;;;;;;;9.50;8.25;;;;;;;;5065707;28;8877;-83
2023/06/12 07:07:07;;;;;;;;;10.25;10.25;;;;;;;;5068606;28;8838;-83
2023/06/12 07:09:34;;;;;;;;;11.75;9.50;;;;;;;;5067916;28;8874;-84
2023/06/12 07:12:01;;;;;;;;;10.75;9.75;;;;;;;;5068532;28;8874;-83
2023/06/12 07:14:29;;;;;;;;;14.50;14.00;;;;;;;;5065883;28;8851;-84
2023/06/12 07:16:56;;;;;;;;;18.75;17.50;;;;;;;;5069286;28;8989;-83
2023/06/12 07:19:25;;;;;;;;;15.00;15.00;;;;;;;;5066973;28;8905;-83
2023/06/12 07:21:52;;;;;;;;;15.00;15.00;;;;;;;;5055950;28;8843;-83
2023/06/12 07:24:20;;;;;;;;;17.00;16.25;;;;;;;;5068220;28;8857;-85
2023/06/12 07:26:48;;;;;;;;;12.00;12.00;;;;;;;;5069480;28;8858;-85
2023/06/12 07:29:15;;;;;;;;;10.50;10.50;;;;;;;;5063808;28;8964;-85
2023/06/12 07:31:42;;;;;;;;;12.25;11.75;;;;;;;;5061416;28;8829;-81
2023/06/12 07:34:09;;;;;;;;;9.00;9.00;;;;;;;;5064670;28;8843;-84
2023/06/12 07:36:38;;;;;;;;;12.00;12.00;;;;;;;;5070938;28;8855;-86
2023/06/12 07:39:06;;;;;;;;;13.20;11.80;;;;;;;;5070119;28;8858;-84
2023/06/12 07:41:38;;;;;;;;;14.20;12.40;;;;;;;;5069925;28;8862;-84
2023/06/12 07:44:06;;;;;;;;;10.80;10.80;;;;;;;;5066026;28;8866;-83
2023/06/12 07:46:33;;;;;;;;;7.20;7.20;;;;;;;;5058907;28;8847;-80
2023/06/12 07:49:00;;;;;;;;;11.80;11.80;;;;;;;;5066692;28;9705;-82
2023/06/12 07:51:28;;;;;;;;;14.80;12.20;;;;;;;;5059750;28;8841;-82
2023/06/12 07:53:56;;;;;;;;;10.60;10.20;;;;;;;;5063774;28;8881;-81
2023/06/12 07:56:24;;;;;;;;;10.60;10.60;;;;;;;;5051086;28;8857;-82
2023/06/12 07:58:54;;;;;;;;;15.60;12.80;;;;;;;;5056442;28;8871;-86
2023/06/12 08:01:22;;;;;;;;;12.20;12.20;;;;;;;;5056924;28;8793;-85
2023/06/12 08:03:56;;;;;;;;;14.20;12.80;;;;;;;;5065463;28;8847;-82
2023/06/12 08:06:24;;;;;;;;;13.80;13.80;;;;;;;;5065949;28;9301;-84
2023/06/12 08:08:52;;;;;;;;;14.00;12.00;;;;;;;;5068048;28;8891;-83
2023/06/12 08:11:21;;;;;;;;;12.40;11.40;;;;;;;;5063373;28;8839;-81
2023/06/12 08:13:49;;;;;;;;;14.40;13.60;;;;;;;;5057454;28;8854;-79
2023/06/12 08:16:16;;;;;;;;;17.00;17.00;;;;;;;;5062660;28;8847;-78
2023/06/12 08:18:43;;;;;;;;;17.40;17.40;;;;;;;;5067586;28;8867;-78
2023/06/12 08:21:10;;;;;;;;;13.80;12.60;;;;;;;;5067027;28;8949;-79
2023/06/12 08:23:38;;;;;;;;;12.00;11.40;;;;;;;;5067231;28;8989;-79
2023/06/12 08:26:05;;;;;;;;;14.40;14.40;;;;;;;;5063561;28;8993;-79
2023/06/12 08:28:35;;;;;;;;;10.80;10.80;;;;;;;;5063873;28;8863;-78
2023/06/12 08:31:02;;;;;;;;;17.20;15.20;;;;;;;;5067404;28;8826;-79
2023/06/12 08:33:30;;;;;;;;;13.20;12.20;;;;;;;;5067468;28;8972;-79
2023/06/12 08:35:58;;;;;;;;;14.80;14.60;;;;;;;;5067146;28;8851;-78
2023/06/12 08:38:25;;;;;;;;;16.40;15.00;;;;;;;;5067383;28;8985;-79
2023/06/12 08:40:55;;;;;;;;;16.00;14.00;;;;;;;;5067234;28;9283;-79
2023/06/12 08:43:22;;;;;;;;;15.40;14.60;;;;;;;;5067313;28;8850;-78
2023/06/12 08:45:53;;;;;;;;;20.00;16.60;;;;;;;;5067472;28;8967;-79
2023/06/12 08:48:22;;;;;;;;;14.00;14.00;;;;;;;;5062373;28;8961;-79
2023/06/12 08:50:50;;;;;;;;;18.40;17.60;;;;;;;;5063383;28;8981;-78
2023/06/12 08:53:18;;;;;;;;;15.80;15.80;;;;;;;;5065595;28;9755;-78
2023/06/12 08:55:46;;;;;;;;;17.60;17.60;;;;;;;;5069638;28;9776;-79
2023/06/12 08:58:13;;;;;;;;;16.40;15.40;;;;;;;;5070974;28;9729;-79
2023/06/12 09:00:40;;;;;;;;;16.40;15.60;;;;;;;;5064427;28;8920;-79
2023/06/12 09:03:10;;;;;;;;;17.60;17.60;;;;;;;;5061667;28;8857;-79
2023/06/12 09:05:38;;;;;;;;;21.80;21.80;;;;;;;;5070210;28;8885;-79
2023/06/12 09:08:05;;;;;;;;;17.60;17.60;;;;;;;;5072269;28;8870;-79
2023/06/12 09:10:33;;;;;;;;;17.40;15.60;;;;;;;;5072358;28;8846;-79
2023/06/12 09:13:01;;;;;;;;;17.40;17.00;;;;;;;;5071578;28;8845;-78
2023/06/12 09:15:29;;;;;;;;;19.00;16.00;;;;;;;;5071506;28;8850;-79
2023/06/12 09:17:56;;;;;;;;;21.60;20.20;;;;;;;;5071639;28;8866;-79
2023/06/12 09:20:27;;;;;;;;;20.00;19.00;;;;;;;;5061652;28;8912;-79
2023/06/12 09:22:54;;;;;;;;;22.00;20.20;;;;;;;;5067757;28;8855;-79
2023/06/12 09:25:30;;;;;;;;;25.80;23.40;;;;;;;;5059480;28;9499;-79
2023/06/12 09:28:03;;;;;;;;;20.80;19.80;;;;;;;;5066198;28;8857;-79
2023/06/12 09:30:31;;;;;;;;;22.20;19.00;;;;;;;;5060970;28;8881;-79
2023/06/12 09:33:00;;;;;;;;;19.40;18.20;;;;;;;;5069306;28;8855;-79
2023/06/12 09:35:29;;;;;;;;;19.60;19.60;;;;;;;;5069530;28;8934;-79
2023/06/12 09:37:58;;;;;;;;;20.40;20.40;;;;;;;;5069603;28;8858;-79
2023/06/12 09:40:25;;;;;;;;;20.40;16.80;;;;;;;;5069388;28;8858;-79
2023/06/12 09:42:52;;;;;;;;;20.00;20.00;;;;;;;;5069837;28;8908;-79
2023/06/12 09:45:23;;;;;;;;;18.60;18.60;;;;;;;;5069693;28;8854;-79
2023/06/12 09:47:52;;;;;;;;;20.00;19.80;;;;;;;;5069717;28;8896;-78
2023/06/12 09:50:22;;;;;;;;;24.60;19.80;;;;;;;;5070002;28;8975;-79
2023/06/12 09:52:51;;;;;;;;;22.00;18.20;;;;;;;;5070290;28;8839;-79
2023/06/12 09:55:21;;;;;;;;;18.80;18.80;;;;;;;;5069024;28;8858;-79
2023/06/12 09:57:53;;;;;;;;;20.80;19.00;;;;;;;;5069299;28;8880;-80
2023/06/12 10:00:21;;;;;;;;;22.80;20.80;;;;;;;;5065841;28;8853;-79
2023/06/12 10:02:55;;;;;;;;;24.40;19.40;;;;;;;;5062213;28;8874;-80
2023/06/12 10:05:24;;;;;;;;;24.80;24.80;;;;;;;;5066334;28;8851;-79
2023/06/12 10:07:55;;;;;;;;;23.60;21.80;;;;;;;;5065779;28;8850;-79
2023/06/12 10:10:23;;;;;;;;;21.60;20.60;;;;;;;;5069049;28;8851;-80
2023/06/12 10:12:52;;;;;;;;;22.60;19.80;;;;;;;;5068333;28;8875;-79
2023/06/12 10:15:19;;;;;;;;;16.60;16.60;;;;;;;;5068570;28;8839;-79
2023/06/12 10:17:48;;;;;;;;;14.40;14.40;;;;;;;;5069177;28;8847;-79
2023/06/12 10:20:17;;;;;;;;;20.60;20.60;;;;;;;;5067706;28;8874;-79
2023/06/12 10:22:44;;;;;;;;;20.40;20.40;;;;;;;;5068832;28;8992;-79
2023/06/12 10:25:13;;;;;;;;;19.20;18.80;;;;;;;;5069293;28;8866;-82
2023/06/12 10:27:41;;;;;;;;;18.40;17.40;;;;;;;;5066095;28;8892;-83
2023/06/12 10:30:12;;;;;;;;;17.60;17.60;;;;;;;;5068928;28;8869;-82
2023/06/12 10:32:42;;;;;;;;;12.80;12.80;;;;;;;;5069206;28;8851;-82
2023/06/12 10:35:09;;;;;;;;;21.60;19.80;;;;;;;;5069586;28;8858;-84
2023/06/12 10:37:39;;;;;;;;;18.00;18.00;;;;;;;;5066381;28;8886;-81
2023/06/12 10:40:15;;;;;;;;;17.80;16.20;;;;;;;;5070974;28;8957;-81
2023/06/12 10:42:47;;;;;;;;;18.20;18.20;;;;;;;;5070018;28;8855;-83
2023/06/12 10:45:23;;;;;;;;;16.40;16.40;;;;;;;;5069287;28;8867;-82
2023/06/12 10:48:20;;;;;;;;;17.00;16.60;;;;;;;;5061882;28;8863;-84
2023/06/12 10:50:52;;;;;;;;;15.60;15.60;;;;;;;;5058567;28;8854;-81
2023/06/12 10:53:23;;;;;;;;;17.00;17.00;;;;;;;;5070633;28;8863;-85
2023/06/12 10:55:57;;;;;;;;;19.60;19.20;;;;;;;;5069448;28;8879;-82
2023/06/12 10:58:26;;;;;;;;;24.80;21.20;;;;;;;;5069551;28;8981;-82
2023/06/12 11:00:54;;;;;;;;;18.20;17.00;;;;;;;;5056741;28;9719;-83
2023/06/12 11:03:28;;;;;;;;;17.00;17.00;;;;;;;;5068493;28;8877;-81
2023/06/12 11:05:58;;;;;;;;;23.40;21.40;;;;;;;;5068673;28;8985;-79
2023/06/12 11:08:28;;;;;;;;;17.40;15.60;;;;;;;;5067832;28;8904;-81
2023/06/12 11:10:56;;;;;;;;;24.00;21.80;;;;;;;;5067914;28;8871;-81
2023/06/12 11:13:24;;;;;;;;;17.20;16.00;;;;;;;;5067692;28;8894;-82
2023/06/12 11:15:53;;;;;;;;;14.80;13.80;;;;;;;;5067976;28;8873;-82
2023/06/12 11:18:21;;;;;;;;;18.00;18.00;;;;;;;;5066590;28;8966;-82
2023/06/12 11:20:53;;;;;;;;;17.20;17.20;;;;;;;;5062310;28;8867;-83
2023/06/12 11:23:23;;;;;;;;;17.00;17.00;;;;;;;;5068015;28;8874;-82
2023/06/12 11:25:59;;;;;;;;;19.00;16.00;;;;;;;;5063693;28;8904;-81
2023/06/12 11:28:32;;;;;;;;;18.80;18.80;;;;;;;;5056651;28;8927;-82
2023/06/12 11:31:01;;;;;;;;;19.60;19.00;;;;;;;;5061962;28;8786;-82
2023/06/12 11:33:31;;;;;;;;;19.40;19.40;;;;;;;;5062314;28;8926;-81
2023/06/12 11:36:00;;;;;;;;;18.40;18.40;;;;;;;;5064000;28;8850;-82
2023/06/12 11:38:27;;;;;;;;;14.80;14.80;;;;;;;;5066782;28;8927;-82
2023/06/12 11:40:54;;;;;;;;;18.40;16.40;;;;;;;;5067720;28;8925;-81
2023/06/12 11:43:23;;;;;;;;;20.00;18.40;;;;;;;;5068088;28;8997;-82
2023/06/12 11:45:52;;;;;;;;;20.60;19.60;;;;;;;;5067836;28;8879;-81
2023/06/12 11:48:20;;;;;;;;;19.20;18.40;;;;;;;;5067738;28;9734;-81
2023/06/12 11:50:48;;;;;;;;;16.00;15.00;;;;;;;;5068179;28;8877;-82
2023/06/12 11:53:16;;;;;;;;;15.20;14.40;;;;;;;;5068149;28;9812;-82
2023/06/12 11:55:47;;;;;;;;;16.00;16.00;;;;;;;;5066077;28;8896;-81
2023/06/12 11:58:14;;;;;;;;;17.00;13.60;;;;;;;;5057594;28;8907;-81
2023/06/12 12:00:42;;;;;;;;;13.60;13.60;;;;;;;;5059909;28;8792;-82
2023/06/12 12:03:13;;;;;;;;;18.20;18.00;;;;;;;;5061653;28;8865;-82
2023/06/12 12:05:40;;;;;;;;;17.40;17.40;;;;;;;;5054829;28;8854;-82
2023/06/12 12:08:08;;;;;;;;;17.80;16.20;;;;;;;;5064463;28;8867;-82
2023/06/12 12:10:40;;;;;;;;;15.20;15.20;;;;;;;;5067366;28;8901;-81
2023/06/12 12:13:08;;;;;;;;;17.00;14.40;;;;;;;;5062681;28;8877;-81
2023/06/12 12:15:40;;;;;;;;;20.00;19.60;;;;;;;;5067787;28;8889;-81
2023/06/12 12:18:13;;;;;;;;;14.00;14.00;;;;;;;;5067572;28;8861;-82
2023/06/12 12:20:41;;;;;;;;;18.60;18.60;;;;;;;;5068338;28;8849;-81
2023/06/12 12:23:12;;;;;;;;;18.00;18.00;;;;;;;;5069092;28;8863;-82
2023/06/12 12:25:40;;;;;;;;;14.80;14.40;;;;;;;;5065865;28;8869;-82
2023/06/12 12:28:07;;;;;;;;;17.80;17.80;;;;;;;;5066367;28;8923;-82
2023/06/12 12:30:37;;;;;;;;;17.00;17.00;;;;;;;;5065396;28;8785;-81
2023/06/12 12:33:04;;;;;;;;;12.20;12.20;;;;;;;;5069385;28;8858;-82
2023/06/12 12:35:33;;;;;;;;;17.00;16.20;;;;;;;;5065641;28;8865;-82
2023/06/12 12:38:01;;;;;;;;;17.00;16.20;;;;;;;;5069637;28;8867;-81
2023/06/12 12:40:28;;;;;;;;;18.40;16.40;;;;;;;;5059419;28;9661;-82
2023/06/12 12:42:55;;;;;;;;;18.80;17.40;;;;;;;;5070151;28;8885;-82
2023/06/12 12:45:23;;;;;;;;;16.00;16.00;;;;;;;;5070443;28;8984;-82
2023/06/12 12:47:52;;;;;;;;;14.40;14.40;;;;;;;;5070398;28;9252;-81
2023/06/12 12:50:22;;;;;;;;;18.00;18.00;;;;;;;;5070096;28;8843;-81
2023/06/12 12:52:50;;;;;;;;;20.40;17.80;;;;;;;;5058146;28;8993;-80
2023/06/12 12:55:21;;;;;;;;;15.80;15.80;;;;;;;;5070206;28;9017;-82
2023/06/12 12:57:48;;;;;;;;;14.40;14.40;;;;;;;;5071055;28;8862;-79
2023/06/12 13:00:18;;;;;;;;;19.20;19.20;;;;;;;;5063853;28;8853;-84
2023/06/12 13:02:45;;;;;;;;;15.00;15.00;;;;;;;;5062690;28;8859;-80
2023/06/12 13:05:14;;;;;;;;;18.20;16.60;;;;;;;;5070023;28;8850;-84
2023/06/12 13:07:42;;;;;;;;;14.20;14.20;;;;;;;;5066325;28;8863;-80
2023/06/12 13:10:12;;;;;;;;;11.80;11.80;;;;;;;;5064173;28;8899;-82
2023/06/12 13:12:40;;;;;;;;;15.20;13.80;;;;;;;;5053486;28;8946;-82
2023/06/12 13:15:08;;;;;;;;;11.20;10.80;;;;;;;;5055710;28;9664;-80
2023/06/12 13:17:38;;;;;;;;;16.80;16.80;;;;;;;;5070155;28;8858;-87
2023/06/12 13:20:06;;;;;;;;;14.60;13.00;;;;;;;;5069632;28;8847;-81
2023/06/12 13:22:34;;;;;;;;;16.00;13.20;;;;;;;;5061164;28;8869;-81
2023/06/12 13:25:01;;;;;;;;;16.60;14.80;;;;;;;;5065488;28;8866;-81
2023/06/12 13:27:30;;;;;;;;;14.60;14.40;;;;;;;;5061436;28;8951;-82
2023/06/12 13:29:57;;;;;;;;;11.40;11.40;;;;;;;;5070080;28;8842;-82
2023/06/12 13:32:24;;;;;;;;;13.20;13.20;;;;;;;;5058734;28;8821;-82
2023/06/12 13:34:52;;;;;;;;;14.80;13.40;;;;;;;;5055688;28;8851;-82
2023/06/12 13:37:21;;;;;;;;;15.20;15.20;;;;;;;;5069798;28;8869;-82
2023/06/12 13:39:48;;;;;;;;;15.40;13.60;;;;;;;;5069466;28;9586;-82
2023/06/12 13:42:17;;;;;;;;;13.60;13.60;;;;;;;;5068824;28;8846;-82
2023/06/12 13:44:45;;;;;;;;;13.20;13.20;;;;;;;;5069434;28;8847;-82
2023/06/12 13:47:13;;;;;;;;;14.40;14.40;;;;;;;;5069832;28;8851;-82
2023/06/12 13:49:40;;;;;;;;;16.40;16.40;;;;;;;;5068647;28;8858;-81
2023/06/12 13:52:09;;;;;;;;;13.60;13.60;;;;;;;;5069682;28;8981;-81
2023/06/12 13:54:36;;;;;;;;;14.00;12.60;;;;;;;;5069914;28;8874;-82
2023/06/12 13:57:06;;;;;;;;;15.40;13.80;;;;;;;;5070411;28;8862;-82
2023/06/12 13:59:34;;;;;;;;;14.00;14.00;;;;;;;;5070146;28;8881;-82
2023/06/12 14:02:03;;;;;;;;;16.60;14.00;;;;;;;;5056929;28;8827;-81
2023/06/12 14:04:30;;;;;;;;;16.00;14.40;;;;;;;;5064568;28;8903;-83
2023/06/12 14:07:00;;;;;;;;;13.00;13.00;;;;;;;;5058175;28;8914;-80
2023/06/12 14:09:27;;;;;;;;;13.60;13.60;;;;;;;;5056464;28;8897;-83
2023/06/12 14:11:54;;;;;;;;;11.80;11.80;;;;;;;;5064453;28;8851;-83
2023/06/12 14:14:22;;;;;;;;;14.40;13.00;;;;;;;;5053859;28;8903;-84
2023/06/12 14:16:51;;;;;;;;;11.00;11.00;;;;;;;;5069862;28;8877;-87
2023/06/12 14:19:20;;;;;;;;;14.00;14.00;;;;;;;;5051132;28;8844;-83
2023/06/12 14:21:47;;;;;;;;;13.00;13.00;;;;;;;;5058045;28;8847;-82
2023/06/12 14:24:15;;;;;;;;;12.80;12.80;;;;;;;;5062279;28;8884;-84
2023/06/12 14:26:42;;;;;;;;;10.60;10.60;;;;;;;;5063776;28;8858;-83
2023/06/12 14:29:09;;;;;;;;;13.80;13.80;;;;;;;;5059071;28;8854;-84
2023/06/12 14:31:37;;;;;;;;;11.60;11.60;;;;;;;;5055875;28;8779;-84
2023/06/12 14:34:04;;;;;;;;;13.80;11.60;;;;;;;;5050980;28;8964;-87
2023/06/12 14:36:33;;;;;;;;;11.40;11.40;;;;;;;;5063402;28;8853;-81
2023/06/12 14:39:03;;;;;;;;;14.20;14.00;;;;;;;;5053522;28;8861;-83
2023/06/12 14:41:33;;;;;;;;;14.00;14.00;;;;;;;;5059050;28;8885;-81
2023/06/12 14:44:01;;;;;;;;;11.60;11.60;;;;;;;;5058521;28;8880;-84
2023/06/12 14:46:28;;;;;;;;;16.80;14.00;;;;;;;;5065409;28;8853;-83
2023/06/12 14:48:56;;;;;;;;;12.60;12.60;;;;;;;;5059803;28;9582;-82